sensor_id;sensor_type;location;lat;lon;timestamp;temperature;humidity
80134;SHT30;69443;51.442;10.564;2023-08-01T00:06:47;19.08;65.02
80134;SHT30;69443;51.442;10.564;2023-08-01T00:10:00;19.07;65.21
80134;SHT30;69443;51.442;10.564;2023-08-01T00:34:34;19.00;65.55
80134;SHT30;69443;51.442;10.564;2023-08-01T00:44:57;18.96;65.89
80134;SHT30;69443;51.442;10.564;2023-08-01T00:58:47;18.97;65.92
80134;SHT30;69443;51.442;10.564;2023-08-01T01:11:16;18.92;65.48
80134;SHT30;69443;51.442;10.564;2023-08-01T01:13:42;18.90;65.54
80134;SHT30;69443;51.442;10.564;2023-08-01T01:16:07;18.92;65.63
80134;SHT30;69443;51.442;10.564;2023-08-01T01:18:32;18.89;65.80
80134;SHT30;69443;51.442;10.564;2023-08-01T01:31:56;18.86;66.05
80134;SHT30;69443;51.442;10.564;2023-08-01T01:38:11;18.87;65.53
80134;SHT30;69443;51.442;10.564;2023-08-01T01:40:37;18.86;65.61
80134;SHT30;69443;51.442;10.564;2023-08-01T01:43:02;18.85;65.62
80134;SHT30;69443;51.442;10.564;2023-08-01T01:45:28;18.83;65.58
80134;SHT30;69443;51.442;10.564;2023-08-01T01:47:53;18.83;65.66
80134;SHT30;69443;51.442;10.564;2023-08-01T02:05:41;18.79;66.49
80134;SHT30;69443;51.442;10.564;2023-08-01T02:09:02;18.77;66.59
80134;SHT30;69443;51.442;10.564;2023-08-01T02:12:04;18.75;66.25
80134;SHT30;69443;51.442;10.564;2023-08-01T02:28:59;18.69;67.56
80134;SHT30;69443;51.442;10.564;2023-08-01T19:54:59;20.14;57.13
80134;SHT30;69443;51.442;10.564;2023-08-01T19:57:27;20.11;57.31
80134;SHT30;69443;51.442;10.564;2023-08-01T19:59:52;20.07;57.39
80134;SHT30;69443;51.442;10.564;2023-08-01T20:02:17;20.01;57.53
80134;SHT30;69443;51.442;10.564;2023-08-01T20:04:43;19.97;57.65
80134;SHT30;69443;51.442;10.564;2023-08-01T20:07:08;19.96;57.74
80134;SHT30;69443;51.442;10.564;2023-08-01T20:09:34;19.93;57.78
80134;SHT30;69443;51.442;10.564;2023-08-01T20:11:59;19.92;57.85
80134;SHT30;69443;51.442;10.564;2023-08-01T20:14:25;19.86;57.92
80134;SHT30;69443;51.442;10.564;2023-08-01T20:16:50;19.83;58.02
80134;SHT30;69443;51.442;10.564;2023-08-01T20:19:15;19.82;58.12
80134;SHT30;69443;51.442;10.564;2023-08-01T20:21:41;19.77;58.16
80134;SHT30;69443;51.442;10.564;2023-08-01T20:24:07;19.75;58.29
80134;SHT30;69443;51.442;10.564;2023-08-01T20:26:32;19.75;58.27
80134;SHT30;69443;51.442;10.564;2023-08-01T20:28:58;19.75;58.35
80134;SHT30;69443;51.442;10.564;2023-08-01T20:31:23;19.69;58.37
80134;SHT30;69443;51.442;10.564;2023-08-01T20:33:49;19.66;58.42
80134;SHT30;69443;51.442;10.564;2023-08-01T20:36:14;19.66;58.49
80134;SHT30;69443;51.442;10.564;2023-08-01T20:38:40;19.63;58.54
80134;SHT30;69443;51.442;10.564;2023-08-01T20:41:13;19.62;58.73
80134;SHT30;69443;51.442;10.564;2023-08-01T20:43:38;19.62;58.64
80134;SHT30;69443;51.442;10.564;2023-08-01T20:46:04;19.58;58.71
80134;SHT30;69443;51.442;10.564;2023-08-01T20:48:29;19.55;58.84
80134;SHT30;69443;51.442;10.564;2023-08-01T20:50:54;19.56;58.90
80134;SHT30;69443;51.442;10.564;2023-08-01T20:53:20;19.54;58.96
80134;SHT30;69443;51.442;10.564;2023-08-01T20:55:45;19.49;59.01
80134;SHT30;69443;51.442;10.564;2023-08-01T20:58:11;19.45;59.05
80134;SHT30;69443;51.442;10.564;2023-08-01T21:00:36;19.45;59.07
80134;SHT30;69443;51.442;10.564;2023-08-01T21:03:02;19.45;59.11
80134;SHT30;69443;51.442;10.564;2023-08-01T21:05:27;19.44;59.15
80134;SHT30;69443;51.442;10.564;2023-08-01T21:07:52;19.42;59.16
80134;SHT30;69443;51.442;10.564;2023-08-01T21:10:18;19.41;59.18
80134;SHT30;69443;51.442;10.564;2023-08-01T21:12:43;19.39;59.23
80134;SHT30;69443;51.442;10.564;2023-08-01T21:15:09;19.39;59.32
80134;SHT30;69443;51.442;10.564;2023-08-01T21:17:34;19.35;59.37
80134;SHT30;69443;51.442;10.564;2023-08-01T21:19:59;19.31;59.32
80134;SHT30;69443;51.442;10.564;2023-08-01T21:22:25;19.32;59.35
80134;SHT30;69443;51.442;10.564;2023-08-01T21:24:50;19.27;59.34
80134;SHT30;69443;51.442;10.564;2023-08-01T21:27:15;19.27;59.43
80134;SHT30;69443;51.442;10.564;2023-08-01T21:29:41;19.25;59.48
80134;SHT30;69443;51.442;10.564;2023-08-01T21:32:06;19.24;59.46
80134;SHT30;69443;51.442;10.564;2023-08-01T21:34:33;19.20;59.49
80134;SHT30;69443;51.442;10.564;2023-08-01T21:36:58;19.17;59.55
80134;SHT30;69443;51.442;10.564;2023-08-01T21:39:24;19.14;59.57
80134;SHT30;69443;51.442;10.564;2023-08-01T21:41:49;19.11;59.59
80134;SHT30;69443;51.442;10.564;2023-08-01T21:44:14;19.08;59.59
80134;SHT30;69443;51.442;10.564;2023-08-01T21:46:40;19.06;59.56
80134;SHT30;69443;51.442;10.564;2023-08-01T21:49:05;19.02;59.63
80134;SHT30;69443;51.442;10.564;2023-08-01T21:51:30;19.00;59.71
80134;SHT30;69443;51.442;10.564;2023-08-01T21:53:56;18.97;59.74
80134;SHT30;69443;51.442;10.564;2023-08-01T21:56:22;18.92;59.83
80134;SHT30;69443;51.442;10.564;2023-08-01T21:58:48;18.90;59.93
80134;SHT30;69443;51.442;10.564;2023-08-01T22:01:13;18.87;59.94
80134;SHT30;69443;51.442;10.564;2023-08-01T22:03:39;18.82;60.05
80134;SHT30;69443;51.442;10.564;2023-08-01T22:06:04;18.79;60.03
80134;SHT30;69443;51.442;10.564;2023-08-01T22:08:30;18.77;60.00
80134;SHT30;69443;51.442;10.564;2023-08-01T22:10:56;18.75;60.05
80134;SHT30;69443;51.442;10.564;2023-08-01T22:13:23;18.72;60.09
80134;SHT30;69443;51.442;10.564;2023-08-01T22:15:49;18.68;60.06
80134;SHT30;69443;51.442;10.564;2023-08-01T22:18:16;18.65;60.11
80134;SHT30;69443;51.442;10.564;2023-08-01T22:20:55;18.62;60.25
80134;SHT30;69443;51.442;10.564;2023-08-01T22:23:21;18.56;60.22
80134;SHT30;69443;51.442;10.564;2023-08-01T22:25:48;18.58;60.32
80134;SHT30;69443;51.442;10.564;2023-08-01T22:28:16;18.53;60.36
80134;SHT30;69443;51.442;10.564;2023-08-01T22:30:41;18.51;60.43
80134;SHT30;69443;51.442;10.564;2023-08-01T22:33:06;18.48;60.52
80134;SHT30;69443;51.442;10.564;2023-08-01T22:35:32;18.45;60.65
80134;SHT30;69443;51.442;10.564;2023-08-01T22:37:57;18.42;60.63
80134;SHT30;69443;51.442;10.564;2023-08-01T22:40:24;18.41;60.62
80134;SHT30;69443;51.442;10.564;2023-08-01T22:42:49;18.40;60.72
80134;SHT30;69443;51.442;10.564;2023-08-01T22:45:15;18.40;60.74
80134;SHT30;69443;51.442;10.564;2023-08-01T22:47:40;18.40;60.71
80134;SHT30;69443;51.442;10.564;2023-08-01T22:50:07;18.40;60.76
80134;SHT30;69443;51.442;10.564;2023-08-01T22:52:32;18.38;60.81
80134;SHT30;69443;51.442;10.564;2023-08-01T22:54:57;18.35;60.78
80134;SHT30;69443;51.442;10.564;2023-08-01T22:57:23;18.34;60.81
80134;SHT30;69443;51.442;10.564;2023-08-01T22:59:48;18.30;60.84
80134;SHT30;69443;51.442;10.564;2023-08-01T23:02:14;18.30;60.85
80134;SHT30;69443;51.442;10.564;2023-08-01T23:04:39;18.30;60.83
80134;SHT30;69443;51.442;10.564;2023-08-01T23:07:05;18.25;60.88
80134;SHT30;69443;51.442;10.564;2023-08-01T23:09:31;18.23;60.97
80134;SHT30;69443;51.442;10.564;2023-08-01T23:11:56;18.24;60.99
80134;SHT30;69443;51.442;10.564;2023-08-01T23:14:22;18.20;60.92
80134;SHT30;69443;51.442;10.564;2023-08-01T23:16:47;18.18;60.97
80134;SHT30;69443;51.442;10.564;2023-08-01T23:19:12;18.17;61.00
80134;SHT30;69443;51.442;10.564;2023-08-01T23:21:38;18.13;61.10
80134;SHT30;69443;51.442;10.564;2023-08-01T23:24:03;18.14;61.17
80134;SHT30;69443;51.442;10.564;2023-08-01T23:26:29;18.13;61.25
80134;SHT30;69443;51.442;10.564;2023-08-01T23:28:54;18.14;61.28
80134;SHT30;69443;51.442;10.564;2023-08-01T23:31:19;18.10;61.32
80134;SHT30;69443;51.442;10.564;2023-08-01T23:33:45;18.08;61.33
80134;SHT30;69443;51.442;10.564;2023-08-01T23:36:10;18.06;61.35
80134;SHT30;69443;51.442;10.564;2023-08-01T23:38:36;18.08;61.38
80134;SHT30;69443;51.442;10.564;2023-08-01T23:41:10;18.06;61.69
80134;SHT30;69443;51.442;10.564;2023-08-01T23:43:35;18.04;61.53
80134;SHT30;69443;51.442;10.564;2023-08-01T23:46:00;18.00;61.56
80134;SHT30;69443;51.442;10.564;2023-08-01T23:48:26;18.00;61.57
80134;SHT30;69443;51.442;10.564;2023-08-01T23:50:51;18.03;61.57
80134;SHT30;69443;51.442;10.564;2023-08-01T23:53:17;18.00;61.62
80134;SHT30;69443;51.442;10.564;2023-08-01T23:55:43;17.98;61.65
80134;SHT30;69443;51.442;10.564;2023-08-01T23:58:09;17.98;61.63
